createdAt,value
2023-02-24T00:01:56.816Z,72.22
2023-02-24T00:04:23.121Z,72.34
2023-02-24T00:06:50.410Z,72.47
2023-02-24T00:09:27.935Z,72.90
2023-02-24T00:12:08.762Z,72.46
2023-02-24T00:14:37.113Z,72.50
2023-02-24T00:17:03.725Z,72.43
2023-02-24T00:19:34.442Z,72.52
2023-02-24T00:22:03.395Z,72.37
2023-02-24T00:24:30.578Z,73.18
2023-02-24T00:27:01.323Z,72.16
2023-02-24T00:29:29.472Z,72.75
2023-02-24T00:32:06.481Z,72.27
2023-02-24T00:34:35.693Z,72.68
2023-02-24T00:37:03.161Z,72.50
2023-02-24T00:39:34.673Z,72.99
2023-02-24T00:42:06.403Z,73.54
2023-02-24T00:44:38.572Z,73.17
2023-02-24T00:47:09.690Z,73.86
2023-02-24T00:49:41.948Z,73.55
2023-02-24T00:52:09.959Z,72.88
2023-02-24T00:54:40.429Z,72.71
2023-02-24T00:57:08.525Z,73.12
2023-02-24T00:59:36.079Z,74.37
2023-02-24T01:02:07.621Z,73.83
2023-02-24T01:04:35.316Z,73.82
2023-02-24T01:07:01.874Z,73.39
2023-02-24T01:09:31.288Z,74.34
2023-02-24T01:12:16.991Z,73.91
2023-02-24T01:14:47.868Z,73.88
2023-02-24T01:17:16.054Z,73.94
2023-02-24T01:19:44.185Z,73.88
2023-02-24T01:22:14.745Z,73.41
2023-02-24T01:24:44.497Z,74.17
2023-02-24T01:27:13.345Z,73.85
2023-02-24T01:29:39.776Z,73.93
2023-02-24T01:32:29.181Z,74.00
2023-02-24T01:34:55.838Z,74.33
2023-02-24T01:37:22.280Z,73.79
2023-02-24T01:39:51.595Z,73.97
2023-02-24T01:42:21.930Z,74.09
2023-02-24T01:44:48.936Z,74.04
2023-02-24T01:47:21.486Z,74.26
2023-02-24T01:49:52.476Z,73.46
2023-02-24T01:52:24.856Z,74.52
2023-02-24T01:54:58.837Z,74.21
2023-02-24T01:57:30.659Z,74.17
2023-02-24T02:00:11.017Z,72.99
2023-02-24T02:02:42.227Z,72.16
2023-02-24T02:05:10.124Z,72.79
2023-02-24T02:07:39.933Z,72.61
2023-02-24T02:10:09.188Z,72.81
2023-02-24T02:12:44.519Z,72.22
2023-02-24T02:15:21.230Z,72.53
2023-02-24T02:18:14.199Z,73.58
2023-02-24T02:20:59.160Z,73.50
2023-02-24T02:23:47.216Z,73.38
2023-02-24T02:26:19.238Z,72.69
2023-02-24T02:29:07.315Z,73.54
2023-02-24T02:32:07.456Z,73.72
2023-02-24T02:34:45.500Z,73.83
2023-02-24T02:37:24.599Z,73.55
2023-02-24T02:39:58.667Z,73.77
2023-02-24T02:42:30.114Z,73.85
2023-02-24T02:45:13.273Z,74.07
2023-02-24T02:48:06.322Z,73.87
2023-02-24T02:50:50.295Z,73.82
2023-02-24T02:53:39.386Z,73.86
2023-02-24T02:56:11.942Z,73.77
2023-02-24T02:58:42.600Z,73.22
2023-02-24T03:01:11.919Z,74.19
2023-02-24T03:03:43.884Z,73.74
2023-02-24T03:06:22.242Z,74.46
2023-02-24T03:08:55.576Z,74.15
2023-02-24T03:11:22.745Z,74.18
2023-02-24T03:13:52.600Z,73.88
2023-02-24T03:16:20.621Z,74.36
2023-02-24T03:18:52.937Z,74.25
2023-02-24T03:21:38.239Z,74.50
2023-02-24T03:24:06.647Z,74.19
2023-02-24T03:27:06.930Z,73.40
2023-02-24T03:29:42.387Z,72.92
2023-02-24T03:32:14.836Z,72.13
2023-02-24T03:35:04.410Z,72.63
2023-02-24T03:37:33.417Z,72.02
2023-02-24T03:40:11.904Z,72.20
2023-02-24T03:42:42.051Z,71.73
2023-02-24T03:45:09.302Z,71.86
2023-02-24T03:47:36.545Z,71.70
2023-02-24T03:50:12.525Z,72.83
2023-02-24T03:53:08.181Z,73.11
2023-02-24T03:56:01.981Z,72.63
2023-02-24T03:58:48.508Z,72.61
2023-02-24T04:01:26.827Z,72.50
2023-02-24T04:04:06.476Z,72.25
2023-02-24T04:06:42.056Z,72.75
2023-02-24T04:09:27.000Z,72.88
2023-02-24T04:12:00.583Z,72.96
2023-02-24T04:14:37.376Z,72.39
2023-02-24T04:17:37.183Z,72.38
2023-02-24T04:20:13.842Z,71.76
2023-02-24T04:22:43.484Z,72.00
2023-02-24T04:25:13.831Z,72.56
2023-02-24T04:27:42.410Z,72.71
2023-02-24T04:30:12.179Z,72.31
2023-02-24T04:32:42.952Z,72.87
2023-02-24T04:35:13.755Z,71.49
2023-02-24T04:37:40.184Z,72.16
2023-02-24T04:40:10.802Z,73.10
2023-02-24T04:42:46.410Z,72.17
2023-02-24T04:45:18.573Z,72.46
2023-02-24T04:47:53.036Z,72.76
2023-02-24T04:50:23.958Z,71.70
2023-02-24T04:52:55.448Z,71.74
2023-02-24T04:55:24.570Z,72.07
2023-02-24T04:57:54.545Z,71.49
2023-02-24T05:00:23.127Z,72.36
2023-02-24T05:02:55.972Z,72.17
2023-02-24T05:05:33.073Z,72.23
2023-02-24T05:08:11.738Z,72.30
2023-02-24T05:10:40.930Z,72.26
2023-02-24T05:13:11.676Z,72.47
2023-02-24T05:15:41.018Z,72.35
2023-02-24T05:18:09.805Z,72.09
2023-02-24T05:20:56.112Z,72.13
2023-02-24T05:23:31.819Z,72.48
2023-02-24T05:25:59.914Z,72.44
2023-02-24T05:28:26.480Z,72.63
2023-02-24T05:30:56.212Z,72.61
2023-02-24T05:33:22.753Z,72.99
2023-02-24T05:35:51.013Z,73.35
2023-02-24T05:38:19.665Z,73.68
2023-02-24T05:40:48.880Z,73.62
2023-02-24T05:43:18.591Z,74.27
2023-02-24T05:45:47.792Z,74.55
2023-02-24T05:48:15.455Z,74.75
2023-02-24T05:50:45.986Z,74.48
2023-02-24T05:53:13.686Z,74.49
2023-02-24T05:55:40.048Z,74.74
2023-02-24T05:58:07.118Z,73.78
2023-02-24T06:00:38.890Z,73.69
2023-02-24T06:03:09.337Z,73.96
2023-02-24T06:05:39.725Z,74.34
2023-02-24T06:08:06.225Z,74.56
2023-02-24T06:10:33.932Z,74.11
2023-02-24T06:13:04.048Z,74.11
2023-02-24T06:15:31.714Z,74.15
2023-02-24T06:18:03.458Z,74.86
2023-02-24T06:20:33.551Z,74.57
2023-02-24T06:23:03.297Z,74.69
2023-02-24T06:25:30.305Z,74.86
2023-02-24T06:27:56.667Z,74.77
2023-02-24T06:30:24.570Z,74.53
2023-02-24T06:32:51.714Z,74.73
2023-02-24T06:35:20.217Z,74.97
2023-02-24T06:37:47.671Z,75.61
2023-02-24T06:40:17.707Z,75.05
2023-02-24T06:42:46.218Z,76.13
2023-02-24T06:45:14.867Z,75.43
2023-02-24T06:47:46.573Z,75.35
2023-02-24T06:50:13.160Z,75.78
2023-02-24T06:52:40.668Z,75.32
2023-02-24T06:55:25.008Z,75.87
2023-02-24T06:57:59.579Z,75.21
2023-02-24T07:00:37.064Z,74.71
2023-02-24T07:03:14.625Z,74.58
2023-02-24T07:05:42.812Z,74.33
2023-02-24T07:08:09.499Z,74.42
2023-02-24T07:10:35.828Z,74.79
2023-02-24T07:13:02.148Z,74.08
2023-02-24T07:15:31.919Z,73.94
2023-02-24T07:17:58.222Z,73.97
2023-02-24T07:20:26.061Z,74.42
2023-02-24T07:22:52.512Z,74.73
2023-02-24T07:25:34.452Z,74.92
2023-02-24T07:28:01.871Z,75.02
2023-02-24T07:30:30.336Z,74.05
2023-02-24T07:32:57.216Z,74.46
2023-02-24T07:35:23.897Z,74.44
2023-02-24T07:37:50.701Z,73.95
2023-02-24T07:40:17.740Z,74.14
2023-02-24T07:42:47.524Z,74.16
2023-02-24T07:45:14.324Z,74.28
2023-02-24T07:47:43.930Z,74.44
2023-02-24T07:50:14.304Z,74.27
2023-02-24T07:52:41.131Z,74.32
2023-02-24T07:55:09.086Z,74.27
2023-02-24T07:57:37.261Z,73.87
2023-02-24T08:00:18.779Z,73.77
2023-02-24T08:02:49.776Z,72.84
2023-02-24T08:05:18.057Z,72.62
2023-02-24T08:07:49.706Z,72.21
2023-02-24T08:10:25.785Z,72.55
2023-02-24T08:12:54.486Z,72.33
2023-02-24T08:15:26.411Z,71.63
2023-02-24T08:17:56.784Z,71.48
2023-02-24T08:20:25.158Z,70.76
2023-02-24T08:22:53.357Z,71.15
2023-02-24T08:25:35.182Z,70.82
2023-02-24T08:28:08.556Z,71.80
2023-02-24T08:30:44.813Z,71.59
2023-02-24T08:33:17.297Z,71.61
2023-02-24T08:35:44.597Z,71.50
2023-02-24T08:38:15.419Z,71.25
2023-02-24T08:40:52.096Z,71.00
2023-02-24T08:43:31.031Z,70.80
2023-02-24T08:45:57.333Z,71.79
2023-02-24T08:48:36.961Z,71.88
2023-02-24T08:51:12.149Z,71.47
2023-02-24T08:53:42.336Z,70.37
2023-02-24T08:56:14.021Z,70.40
2023-02-24T08:58:48.770Z,67.47
2023-02-24T09:01:23.989Z,67.78
2023-02-24T09:03:57.801Z,67.92
2023-02-24T09:06:38.469Z,68.76
2023-02-24T09:09:17.941Z,67.98
2023-02-24T09:11:48.280Z,68.37
2023-02-24T09:14:27.387Z,67.25
2023-02-24T09:17:02.401Z,68.33
2023-02-24T09:19:40.853Z,68.07
2023-02-24T09:22:21.155Z,67.02
2023-02-24T09:24:50.889Z,67.66
2023-02-24T09:27:17.495Z,67.94
2023-02-24T09:29:49.225Z,67.74
2023-02-24T09:32:16.140Z,68.49
2023-02-24T09:34:45.703Z,68.24
2023-02-24T09:37:26.006Z,67.56
2023-02-24T09:39:56.403Z,68.21
2023-02-24T09:42:29.070Z,67.93
2023-02-24T09:45:00.657Z,66.92
2023-02-24T09:47:56.713Z,67.51
2023-02-24T09:50:48.291Z,67.23
2023-02-24T09:53:14.031Z,66.08
2023-02-24T09:56:00.255Z,66.04
2023-02-24T09:59:12.001Z,67.41
2023-02-24T10:02:03.155Z,66.36
2023-02-24T10:04:53.818Z,66.22
2023-02-24T10:07:30.013Z,65.87
2023-02-24T10:10:19.334Z,65.24
2023-02-24T10:13:15.340Z,66.29
2023-02-24T10:15:58.995Z,63.36
2023-02-24T10:18:43.126Z,63.45
2023-02-24T10:21:30.350Z,62.61
2023-02-24T10:24:07.897Z,63.15
2023-02-24T10:26:57.952Z,63.37
2023-02-24T10:29:47.270Z,61.99
2023-02-24T10:32:43.216Z,61.47
2023-02-24T10:35:17.247Z,60.96
2023-02-24T10:37:44.015Z,61.24
2023-02-24T10:40:10.660Z,60.00
2023-02-24T10:42:44.391Z,60.68
2023-02-24T10:45:23.629Z,58.95
2023-02-24T10:47:58.455Z,59.52
2023-02-24T10:50:27.409Z,58.64
2023-02-24T10:53:03.908Z,58.29
2023-02-24T10:55:47.224Z,58.45
2023-02-24T10:58:37.513Z,60.28
2023-02-24T11:01:13.612Z,59.29
2023-02-24T11:04:00.953Z,59.19
2023-02-24T11:06:41.872Z,57.25
2023-02-24T11:09:29.288Z,55.72
2023-02-24T11:12:31.222Z,53.86
2023-02-24T11:15:19.965Z,54.96
2023-02-24T11:17:56.795Z,55.20
2023-02-24T11:20:49.083Z,55.74
2023-02-24T11:23:35.087Z,55.02
2023-02-24T11:26:16.974Z,55.76
2023-02-24T11:29:00.008Z,53.09
2023-02-24T11:31:51.886Z,52.94
2023-02-24T11:34:40.926Z,54.68
2023-02-24T11:37:33.668Z,53.38
2023-02-24T11:40:15.011Z,52.33
2023-02-24T11:42:56.881Z,53.66
2023-02-24T11:46:01.330Z,53.31
2023-02-24T11:48:34.918Z,52.82
2023-02-24T11:51:20.708Z,52.85
2023-02-24T11:53:58.210Z,55.04
2023-02-24T11:56:38.994Z,55.83
2023-02-24T11:59:33.365Z,55.49
2023-02-24T12:02:15.392Z,54.91
2023-02-24T12:04:56.647Z,54.18
2023-02-24T12:07:33.799Z,54.03
2023-02-24T12:10:16.067Z,52.32
2023-02-24T12:12:48.745Z,52.69
2023-02-24T12:15:24.862Z,53.19
2023-02-24T12:18:01.611Z,53.84
2023-02-24T12:20:36.060Z,52.34
2023-02-24T12:23:15.581Z,51.83
2023-02-24T12:26:06.734Z,51.44
2023-02-24T12:28:40.983Z,50.76
2023-02-24T12:31:45.645Z,51.43
2023-02-24T12:34:34.424Z,51.31
2023-02-24T12:37:27.282Z,52.51
2023-02-24T12:40:30.168Z,53.67
2023-02-24T12:43:05.272Z,50.99
2023-02-24T12:45:49.461Z,50.45
2023-02-24T12:48:30.439Z,50.29
2023-02-24T12:51:34.547Z,49.49
2023-02-24T12:54:15.637Z,48.92
2023-02-24T12:56:51.794Z,47.58
2023-02-24T12:59:22.558Z,47.41
2023-02-24T13:01:56.093Z,47.80
2023-02-24T13:04:39.036Z,46.00
2023-02-24T13:07:39.240Z,47.33
2023-02-24T13:10:16.600Z,47.08
2023-02-24T13:13:15.542Z,47.43
2023-02-24T13:15:54.262Z,46.56
2023-02-24T13:18:46.626Z,47.02
2023-02-24T13:21:23.136Z,45.98
2023-02-24T13:23:58.008Z,46.50
2023-02-24T13:26:26.582Z,46.39
2023-02-24T13:29:02.547Z,45.85
2023-02-24T13:31:41.563Z,46.63
2023-02-24T13:34:29.422Z,44.80
2023-02-24T13:36:55.998Z,43.58
2023-02-24T13:39:31.351Z,43.63
2023-02-24T13:42:22.648Z,43.69
2023-02-24T13:45:18.506Z,44.19
2023-02-24T13:48:07.511Z,44.00
2023-02-24T13:50:59.001Z,44.13
2023-02-24T13:53:28.391Z,42.42
2023-02-24T13:56:27.063Z,42.58
2023-02-24T13:58:57.117Z,43.49
2023-02-24T14:01:28.035Z,43.26
2023-02-24T14:04:05.725Z,43.50
2023-02-24T14:06:32.917Z,44.99
2023-02-24T14:09:02.211Z,44.74
2023-02-24T14:11:32.810Z,44.46
2023-02-24T14:13:59.366Z,44.61
2023-02-24T14:16:35.700Z,45.15
2023-02-24T14:19:03.447Z,43.42
2023-02-24T14:21:32.884Z,42.52
2023-02-24T14:24:10.515Z,43.28
2023-02-24T14:26:58.308Z,44.01
2023-02-24T14:29:43.584Z,44.11
2023-02-24T14:32:21.000Z,43.55
2023-02-24T14:34:47.995Z,42.96
2023-02-24T14:37:17.177Z,43.13
2023-02-24T14:39:55.113Z,43.92
2023-02-24T14:42:22.183Z,43.84
2023-02-24T14:44:51.348Z,43.93
2023-02-24T14:47:20.880Z,44.29
2023-02-24T14:49:59.643Z,43.19
2023-02-24T14:52:34.525Z,42.88
2023-02-24T14:55:15.564Z,42.93
2023-02-24T14:57:56.488Z,42.98
2023-02-24T15:00:49.007Z,43.54
2023-02-24T15:03:33.121Z,43.48
2023-02-24T15:06:04.606Z,43.99
2023-02-24T15:08:59.578Z,45.13
2023-02-24T15:11:29.442Z,45.28
2023-02-24T15:14:00.002Z,44.35
2023-02-24T15:16:33.032Z,45.13
2023-02-24T15:19:01.566Z,45.16
2023-02-24T15:21:33.993Z,44.80
2023-02-24T15:24:03.478Z,45.54
2023-02-24T15:26:34.866Z,45.29
2023-02-24T15:29:13.031Z,46.29
2023-02-24T15:31:39.697Z,46.53
2023-02-24T15:34:06.298Z,47.54
2023-02-24T15:36:36.401Z,48.31
2023-02-24T15:39:06.475Z,49.06
2023-02-24T15:41:40.782Z,48.42
2023-02-24T15:44:22.961Z,50.30
2023-02-24T15:46:49.374Z,49.43
2023-02-24T15:49:15.769Z,49.76
2023-02-24T15:51:45.270Z,50.36
2023-02-24T15:54:17.629Z,50.65
2023-02-24T15:56:45.096Z,50.51
2023-02-24T15:59:17.061Z,51.46
2023-02-24T16:01:43.507Z,51.51
2023-02-24T16:04:09.996Z,50.54
2023-02-24T16:06:41.659Z,51.59
2023-02-24T16:09:14.504Z,52.13
2023-02-24T16:11:44.464Z,52.14
2023-02-24T16:14:15.048Z,52.38
2023-02-24T16:16:41.515Z,52.04
2023-02-24T16:19:10.476Z,52.73
2023-02-24T16:21:36.773Z,52.34
2023-02-24T16:24:03.234Z,53.79
2023-02-24T16:26:31.711Z,53.51
2023-02-24T16:28:59.064Z,53.45
2023-02-24T16:31:26.510Z,52.44
2023-02-24T16:33:55.652Z,52.70
2023-02-24T16:36:25.205Z,52.94
2023-02-24T16:38:51.878Z,53.65
2023-02-24T16:41:18.476Z,54.41
2023-02-24T16:43:45.087Z,54.89
2023-02-24T16:46:17.778Z,53.31
2023-02-24T16:48:47.002Z,54.46
2023-02-24T16:51:14.664Z,53.55
2023-02-24T16:53:41.107Z,54.23
2023-02-24T16:56:08.451Z,53.67
2023-02-24T16:58:35.134Z,52.55
2023-02-24T17:01:02.789Z,52.63
2023-02-24T17:03:37.407Z,52.26
2023-02-24T17:06:07.116Z,52.57
2023-02-24T17:08:33.471Z,53.13
2023-02-24T17:11:00.111Z,54.83
2023-02-24T17:13:26.557Z,55.36
2023-02-24T17:15:55.241Z,57.81
2023-02-24T17:18:22.273Z,58.21
2023-02-24T17:20:48.584Z,61.10
2023-02-24T17:23:14.972Z,61.29
2023-02-24T17:25:41.285Z,62.49
2023-02-24T17:28:07.703Z,64.20
2023-02-24T17:30:35.403Z,65.39
2023-02-24T17:33:02.607Z,68.00
2023-02-24T17:35:28.990Z,66.06
2023-02-24T17:37:55.574Z,68.37
2023-02-24T17:40:22.141Z,68.40
2023-02-24T17:42:48.781Z,67.77
2023-02-24T17:45:16.058Z,70.69
2023-02-24T17:47:42.496Z,71.75
2023-02-24T17:50:12.222Z,70.79
2023-02-24T17:52:39.199Z,73.89
2023-02-24T17:55:06.003Z,73.85
2023-02-24T17:57:34.181Z,74.46
2023-02-24T18:00:00.571Z,73.47
2023-02-24T18:02:26.985Z,73.92
2023-02-24T18:04:53.980Z,75.85
2023-02-24T18:07:21.154Z,75.13
2023-02-24T18:09:47.691Z,76.94
2023-02-24T18:12:13.974Z,75.20
2023-02-24T18:14:40.478Z,75.19
2023-02-24T18:17:06.806Z,75.48
2023-02-24T18:19:33.142Z,75.50
2023-02-24T18:21:59.415Z,75.86
2023-02-24T18:24:25.722Z,74.66
2023-02-24T18:26:52.053Z,76.02
2023-02-24T18:29:18.508Z,75.99
2023-02-24T18:31:45.328Z,71.37
2023-02-24T18:34:11.978Z,72.43
2023-02-24T18:36:38.455Z,71.88
2023-02-24T18:39:05.012Z,72.50
2023-02-24T18:41:31.407Z,72.11
2023-02-24T18:43:59.073Z,72.26
2023-02-24T18:46:26.781Z,73.50
2023-02-24T18:48:53.357Z,73.80
2023-02-24T18:51:23.223Z,73.90
2023-02-24T18:53:52.454Z,73.67
2023-02-24T18:56:22.269Z,74.20
2023-02-24T18:58:49.965Z,74.96
2023-02-24T19:01:25.679Z,74.45
2023-02-24T19:03:53.334Z,73.81
2023-02-24T19:06:21.354Z,74.77
2023-02-24T19:08:57.159Z,73.33
2023-02-24T19:11:26.292Z,74.79
2023-02-24T19:13:53.072Z,74.17
2023-02-24T19:16:19.763Z,75.63
2023-02-24T19:18:50.252Z,75.62
2023-02-24T19:21:16.886Z,75.62
2023-02-24T19:23:43.460Z,79.05
2023-02-24T19:26:23.260Z,76.48
2023-02-24T19:28:50.132Z,77.17
2023-02-24T19:31:22.864Z,75.50
2023-02-24T19:33:54.472Z,73.80
2023-02-24T19:36:21.838Z,72.75
2023-02-24T19:38:48.552Z,74.28
2023-02-24T19:41:15.339Z,74.21
2023-02-24T19:43:42.000Z,73.85
2023-02-24T19:46:11.170Z,73.07
2023-02-24T19:48:38.522Z,73.43
2023-02-24T19:51:09.178Z,72.99
2023-02-24T19:53:35.662Z,73.88
2023-02-24T19:56:02.159Z,73.96
2023-02-24T19:58:28.516Z,74.23
2023-02-24T20:00:54.918Z,74.11
2023-02-24T20:03:22.335Z,74.08
2023-02-24T20:05:48.740Z,74.48
2023-02-24T20:08:15.062Z,74.55
2023-02-24T20:10:41.381Z,74.80
2023-02-24T20:13:07.715Z,74.83
2023-02-24T20:15:35.703Z,75.12
2023-02-24T20:18:04.613Z,75.88
2023-02-24T20:20:31.181Z,75.03
2023-02-24T20:22:57.532Z,74.72
2023-02-24T20:25:24.409Z,75.22
2023-02-24T20:27:50.900Z,75.06
2023-02-24T20:30:17.441Z,74.89
2023-02-24T20:32:43.972Z,74.91
2023-02-24T20:35:10.445Z,75.47
2023-02-24T20:37:36.791Z,75.67
2023-02-24T20:40:03.315Z,75.98
2023-02-24T20:42:29.854Z,76.47
2023-02-24T20:44:56.212Z,76.74
2023-02-24T20:47:22.712Z,77.14
2023-02-24T20:49:49.124Z,76.52
2023-02-24T20:52:15.473Z,76.40
2023-02-24T20:54:43.265Z,75.49
2023-02-24T20:57:09.581Z,75.94
2023-02-24T20:59:39.966Z,75.74
2023-02-24T21:02:06.327Z,75.69
2023-02-24T21:04:32.722Z,75.80
2023-02-24T21:06:59.493Z,75.68
2023-02-24T21:09:25.956Z,75.78
2023-02-24T21:11:52.458Z,75.57
2023-02-24T21:14:21.138Z,74.97
2023-02-24T21:16:47.501Z,74.92
2023-02-24T21:19:14.402Z,75.94
2023-02-24T21:21:40.735Z,75.28
2023-02-24T21:24:07.546Z,74.94
2023-02-24T21:26:33.916Z,75.22
2023-02-24T21:29:00.209Z,74.68
2023-02-24T21:31:27.745Z,74.23
2023-02-24T21:33:54.574Z,73.32
2023-02-24T21:36:24.323Z,72.88
2023-02-24T21:38:52.511Z,73.19
2023-02-24T21:41:22.086Z,72.89
2023-02-24T21:43:52.659Z,73.05
2023-02-24T21:46:19.058Z,72.56
2023-02-24T21:48:45.773Z,72.70
2023-02-24T21:51:13.549Z,71.63
2023-02-24T21:53:43.407Z,71.34
2023-02-24T21:56:18.067Z,70.70
2023-02-24T21:59:01.115Z,70.59
2023-02-24T22:01:39.536Z,69.43
2023-02-24T22:04:14.054Z,70.23
2023-02-24T22:06:42.030Z,69.23
2023-02-24T22:09:10.685Z,69.28
2023-02-24T22:11:40.901Z,68.89
2023-02-24T22:14:12.635Z,69.55
2023-02-24T22:16:42.450Z,69.46
2023-02-24T22:19:09.622Z,70.35
2023-02-24T22:21:36.167Z,69.98
2023-02-24T22:24:03.540Z,70.19
2023-02-24T22:26:31.765Z,70.33
2023-02-24T22:28:59.282Z,69.54
2023-02-24T22:31:27.875Z,69.20
2023-02-24T22:33:54.315Z,69.58
2023-02-24T22:36:37.651Z,69.42
2023-02-24T22:39:05.220Z,69.71
2023-02-24T22:41:34.364Z,70.13
2023-02-24T22:44:03.293Z,71.76
2023-02-24T22:46:33.233Z,72.37
2023-02-24T22:48:59.875Z,71.72
2023-02-24T22:51:27.167Z,72.12
2023-02-24T22:53:54.145Z,72.54
2023-02-24T22:56:26.571Z,72.03
2023-02-24T22:58:53.248Z,71.84
2023-02-24T23:01:28.885Z,72.81
2023-02-24T23:03:58.234Z,72.85
2023-02-24T23:06:27.537Z,72.98
2023-02-24T23:08:54.701Z,73.68
2023-02-24T23:11:29.945Z,73.07
2023-02-24T23:13:58.742Z,73.93
2023-02-24T23:16:29.319Z,72.37
2023-02-24T23:18:58.273Z,72.64
2023-02-24T23:21:27.380Z,72.52
2023-02-24T23:23:56.751Z,72.99
2023-02-24T23:26:32.215Z,72.88
2023-02-24T23:28:58.562Z,71.85
2023-02-24T23:31:25.283Z,72.92
2023-02-24T23:33:53.001Z,73.14
2023-02-24T23:36:19.304Z,72.93
2023-02-24T23:38:46.009Z,72.23
2023-02-24T23:41:12.627Z,73.30
2023-02-24T23:43:39.016Z,73.51
2023-02-24T23:46:07.700Z,72.56
2023-02-24T23:48:34.121Z,72.84
2023-02-24T23:51:10.621Z,71.61
2023-02-24T23:53:42.243Z,69.60
2023-02-24T23:56:11.234Z,71.35
2023-02-24T23:58:37.580Z,71.93
